桃園國際機場 - 塔臺(一站)

METAR RCTP 021730Z 07004KT 9999 FEW012 13/09 Q1022 NOSIG RMK A3020=

站台狀態:Offline
最後更新:2021-12-03 02:00:02